Time;durP1;ratioP1;P1;durP2;ratioP2;P2;SDS_P1;SDS_P2;PMS_P1;PMS_P2;Temp;Humidity;BMP_temperature;BMP_pressure;BME280_temperature;BME280_humidity;BME280_pressure;Samples;Min_cycle;Max_cycle;Signal;HPM_P1;HPM_P2
2022/11/05 00:10:08;;;;;;;7.28;2.05;;;9.70;86.90;;;;;;4986444;28;20058;-53
2022/11/05 00:18:02;;;;;;;6.30;2.65;;;9.80;86.20;;;;;;4981839;28;20053;-48
2022/11/05 00:20:28;;;;;;;5.93;3.00;;;9.80;86.50;;;;;;4985664;28;20038;-58
2022/11/05 00:26:02;;;;;;;5.53;3.03;;;9.80;86.40;;;;;;4982589;28;20061;-52
2022/11/05 00:28:28;;;;;;;8.02;3.40;;;9.80;86.60;;;;;;4984807;28;20057;-49
2022/11/05 00:31:00;;;;;;;6.20;2.97;;;9.80;87.00;;;;;;4984907;28;20080;-50
2022/11/05 00:33:26;;;;;;;4.50;2.47;;;9.80;86.80;;;;;;4986177;28;20031;-51
2022/11/05 00:35:51;;;;;;;5.10;2.90;;;9.80;86.80;;;;;;4985163;28;20039;-47
2022/11/05 00:38:17;;;;;;;5.53;2.50;;;9.70;86.40;;;;;;4984531;28;20463;-48
2022/11/05 00:40:44;;;;;;;7.83;4.40;;;9.80;86.80;;;;;;4982350;28;20173;-51
2022/11/05 00:45:54;;;;;;;8.18;2.78;;;9.80;86.50;;;;;;4977245;28;20121;-49
2022/11/05 00:51:05;;;;;;;4.18;2.40;;;9.70;86.30;;;;;;4983995;28;20042;-51
2022/11/05 00:53:31;;;;;;;4.55;2.50;;;9.80;86.40;;;;;;4983909;28;20542;-47
2022/11/05 00:55:56;;;;;;;5.43;3.03;;;9.70;86.30;;;;;;4983725;28;20042;-50
2022/11/05 00:58:22;;;;;;;4.27;2.20;;;9.70;86.20;;;;;;4985914;28;20025;-49
2022/11/05 01:00:53;;;;;;;5.90;2.42;;;9.70;86.00;;;;;;4985489;28;20029;-47
2022/11/05 01:03:21;;;;;;;2.78;1.58;;;9.70;86.50;;;;;;4987415;28;20113;-48
2022/11/05 01:05:55;;;;;;;5.70;2.25;;;9.70;86.80;;;;;;4988653;28;20026;-50
2022/11/05 01:08:23;;;;;;;2.30;1.60;;;9.80;86.30;;;;;;4986722;28;20538;-51
2022/11/05 01:10:51;;;;;;;3.13;2.13;;;9.80;86.40;;;;;;4986399;28;20696;-48
2022/11/05 01:13:20;;;;;;;3.13;1.65;;;9.70;86.50;;;;;;4989358;28;20065;-47
2022/11/05 01:15:46;;;;;;;3.00;1.50;;;9.80;86.60;;;;;;4988371;28;20034;-50
2022/11/05 01:18:12;;;;;;;3.80;1.95;;;9.80;86.10;;;;;;4990461;28;20399;-50
2022/11/05 01:20:38;;;;;;;3.67;1.77;;;9.70;86.30;;;;;;4986172;28;20030;-50
2022/11/05 01:23:04;;;;;;;2.65;1.90;;;9.80;86.50;;;;;;4987517;28;20038;-51
2022/11/05 01:25:30;;;;;;;3.13;2.47;;;9.80;86.00;;;;;;4988722;28;20034;-51
2022/11/05 01:27:56;;;;;;;3.60;2.90;;;9.80;86.20;;;;;;4988082;28;20108;-49
2022/11/05 01:30:22;;;;;;;7.03;2.97;;;9.70;86.90;;;;;;4986570;28;20384;-54
2022/11/05 01:32:47;;;;;;;7.40;4.07;;;9.70;87.00;;;;;;4988773;28;20769;-50
2022/11/05 01:35:16;;;;;;;6.70;2.70;;;9.70;86.70;;;;;;4988318;28;20042;-51
2022/11/05 01:37:42;;;;;;;3.38;2.53;;;9.70;87.00;;;;;;4985946;28;20715;-48
2022/11/05 01:40:11;;;;;;;3.30;2.03;;;9.80;87.10;;;;;;4986030;28;20538;-48
2022/11/05 01:42:37;;;;;;;3.95;2.60;;;9.80;87.30;;;;;;4988330;28;20026;-49
2022/11/05 01:45:11;;;;;;;7.43;3.27;;;9.90;87.20;;;;;;4984104;28;20034;-47
2022/11/05 01:47:37;;;;;;;7.07;3.50;;;9.90;86.70;;;;;;4984070;28;20038;-47
2022/11/05 01:50:24;;;;;;;8.80;3.77;;;9.90;86.80;;;;;;4987873;28;20137;-50
2022/11/05 01:52:54;;;;;;;13.60;6.93;;;9.90;86.90;;;;;;4987102;28;20034;-50
2022/11/05 01:55:27;;;;;;;12.70;5.88;;;9.90;87.80;;;;;;4986284;28;20129;-52
2022/11/05 01:57:55;;;;;;;4.55;2.80;;;9.90;88.00;;;;;;4985772;28;20219;-48
2022/11/05 02:00:21;;;;;;;4.57;2.65;;;9.80;87.30;;;;;;4984464;28;20042;-48
2022/11/05 02:02:46;;;;;;;3.70;2.63;;;9.80;87.20;;;;;;4984926;28;20035;-51
2022/11/05 02:05:14;;;;;;;8.17;3.10;;;9.90;88.10;;;;;;4983284;28;20506;-51
2022/11/05 02:07:40;;;;;;;4.95;2.90;;;9.90;87.80;;;;;;4978460;28;20046;-49
2022/11/05 02:10:09;;;;;;;7.20;2.63;;;9.90;88.10;;;;;;4984806;28;20046;-52
2022/11/05 02:12:38;;;;;;;6.38;2.40;;;9.70;88.20;;;;;;4984675;28;20042;-52
2022/11/05 02:15:05;;;;;;;6.18;2.38;;;9.80;87.90;;;;;;4987142;28;20053;-51
2022/11/05 02:17:53;;;;;;;13.93;2.90;;;9.80;87.30;;;;;;4982478;28;20038;-49
2022/11/05 02:20:37;;;;;;;11.35;3.28;;;9.70;88.00;;;;;;4986602;28;20053;-51
2022/11/05 02:23:24;;;;;;;5.32;3.53;;;9.70;87.70;;;;;;4984636;28;20422;-50
2022/11/05 02:25:55;;;;;;;6.43;2.70;;;9.70;88.00;;;;;;4979087;28;20073;-50
2022/11/05 02:28:36;;;;;;;11.10;3.10;;;9.70;88.00;;;;;;4987702;28;20019;-50
2022/11/05 02:31:15;;;;;;;5.10;2.58;;;9.80;88.40;;;;;;4985750;28;20034;-52
2022/11/05 02:34:04;;;;;;;8.98;2.15;;;9.70;88.50;;;;;;4981353;28;20037;-47
2022/11/05 02:36:55;;;;;;;5.07;2.40;;;9.60;88.30;;;;;;4983630;28;20125;-48
2022/11/05 02:39:39;;;;;;;5.10;2.47;;;9.60;88.60;;;;;;4984903;28;20061;-46
2022/11/05 02:42:37;;;;;;;5.95;2.40;;;9.70;88.60;;;;;;4986576;28;20030;-50
2022/11/05 02:45:31;;;;;;;6.00;2.38;;;9.70;88.40;;;;;;4985245;28;20038;-49
2022/11/05 02:48:09;;;;;;;3.72;2.28;;;9.70;88.20;;;;;;4981331;28;20338;-47
2022/11/05 02:50:50;;;;;;;4.38;2.40;;;9.70;88.00;;;;;;4984918;28;20521;-47
2022/11/05 02:53:25;;;;;;;4.30;2.47;;;9.70;88.70;;;;;;4985010;28;20034;-52
2022/11/05 02:56:27;;;;;;;8.20;2.70;;;9.70;88.40;;;;;;4983489;28;20038;-50
2022/11/05 02:58:52;;;;;;;6.18;2.90;;;9.70;88.30;;;;;;4977441;28;20049;-53
2022/11/05 03:01:18;;;;;;;5.63;2.83;;;9.60;88.40;;;;;;4986074;28;20030;-48
2022/11/05 03:04:00;;;;;;;15.30;2.53;;;9.60;88.40;;;;;;4982832;28;20106;-53
2022/11/05 03:06:40;;;;;;;6.53;2.38;;;9.60;88.40;;;;;;4984624;28;20578;-51
2022/11/05 03:09:21;;;;;;;4.43;2.35;;;9.60;88.70;;;;;;4983141;28;20038;-53
2022/11/05 03:12:05;;;;;;;5.95;2.80;;;9.60;88.30;;;;;;4982466;28;20084;-50
2022/11/05 03:15:05;;;;;;;8.35;3.15;;;9.60;88.50;;;;;;4981719;28;20045;-52
2022/11/05 03:17:45;;;;;;;7.68;2.58;;;9.60;88.40;;;;;;4985734;28;20034;-53
2022/11/05 03:20:26;;;;;;;6.82;2.92;;;9.70;88.50;;;;;;4985574;28;20785;-52
2022/11/05 03:23:04;;;;;;;4.20;2.78;;;9.70;88.40;;;;;;4982141;28;20050;-51
2022/11/05 03:25:31;;;;;;;;;;;9.70;88.40;;;;;;4985464;28;20085;-49
2022/11/05 03:28:02;;;;;;;4.77;2.30;;;9.70;88.10;;;;;;4984935;28;19999;-51
2022/11/05 03:30:30;;;;;;;5.93;2.78;;;9.60;88.40;;;;;;4982433;28;20278;-53
2022/11/05 03:33:05;;;;;;;6.30;3.00;;;9.60;87.80;;;;;;4984289;28;20499;-52
2022/11/05 03:35:37;;;;;;;5.93;3.22;;;9.70;88.30;;;;;;4982010;28;20034;-51
2022/11/05 03:38:09;;;;;;;7.65;3.33;;;9.70;87.80;;;;;;4981546;28;20442;-50
2022/11/05 03:40:37;;;;;;;7.40;3.22;;;9.60;88.30;;;;;;4984672;28;20129;-48
2022/11/05 03:43:06;;;;;;;8.20;5.60;;;9.70;88.40;;;;;;4984326;28;20101;-50
2022/11/05 03:45:55;;;;;;;5.40;3.72;;;9.80;87.90;;;;;;4984737;28;20581;-47
2022/11/05 03:48:24;;;;;;;8.48;3.83;;;9.80;87.80;;;;;;4984266;28;20442;-47
2022/11/05 03:51:01;;;;;;;6.80;3.97;;;9.80;88.30;;;;;;4984744;28;20728;-50
2022/11/05 03:53:28;;;;;;;;;;;9.80;87.70;;;;;;4985883;28;20491;-47
2022/11/05 03:56:05;;;;;;;9.27;3.50;;;9.80;87.70;;;;;;4983945;28;19925;-47
2022/11/05 03:58:32;;;;;;;8.95;4.55;;;9.80;87.40;;;;;;4982336;28;20528;-50
2022/11/05 04:01:02;;;;;;;10.23;3.63;;;9.90;88.00;;;;;;4985230;28;20045;-50
2022/11/05 04:03:34;;;;;;;11.35;3.78;;;9.80;87.40;;;;;;4982848;28;20494;-53
2022/11/05 04:14:14;;;;;;;6.90;4.28;;;9.80;87.40;;;;;;4980286;28;20565;-49
2022/11/05 04:24:52;;;;;;;24.67;13.43;;;10.00;87.30;;;;;;4984270;28;20407;-51
2022/11/05 04:27:17;;;;;;;14.10;7.70;;;10.00;87.00;;;;;;4983845;28;20027;-48
2022/11/05 04:32:27;;;;;;;16.85;8.55;;;10.00;87.50;;;;;;4983554;28;20104;-48
2022/11/05 04:34:52;;;;;;;9.13;5.90;;;10.00;86.90;;;;;;4988068;28;20030;-50
2022/11/05 04:37:18;;;;;;;21.17;11.70;;;10.00;86.80;;;;;;4987570;28;20026;-47
2022/11/05 04:39:43;;;;;;;12.93;5.07;;;10.00;87.30;;;;;;4988010;28;20026;-55
2022/11/05 04:42:09;;;;;;;11.40;4.67;;;10.00;86.70;;;;;;4984814;28;20061;-54
2022/11/05 04:44:35;;;;;;;11.93;6.70;;;9.90;86.70;;;;;;4985381;28;20040;-51
2022/11/05 04:47:00;;;;;;;18.50;10.37;;;10.00;87.30;;;;;;4990030;28;20065;-48
2022/11/05 04:49:26;;;;;;;14.77;8.77;;;10.00;86.60;;;;;;4988487;28;20030;-50
2022/11/05 04:51:51;;;;;;;8.60;5.27;;;10.10;86.90;;;;;;4986226;28;20033;-49
2022/11/05 04:54:17;;;;;;;11.77;4.40;;;10.10;86.50;;;;;;4987226;28;20034;-50
2022/11/05 04:56:42;;;;;;;6.70;4.40;;;10.10;86.70;;;;;;4985694;28;20034;-48
2022/11/05 04:59:08;;;;;;;16.13;8.00;;;10.10;86.60;;;;;;4985260;28;20080;-48
2022/11/05 05:01:34;;;;;;;32.47;18.70;;;10.10;86.90;;;;;;4985644;28;20031;-48
2022/11/05 05:04:00;;;;;;;21.27;11.27;;;10.10;86.80;;;;;;4986634;28;20398;-52
2022/11/05 05:06:25;;;;;;;12.90;5.32;;;10.10;86.70;;;;;;4987882;28;20026;-51
2022/11/05 05:08:51;;;;;;;11.57;5.50;;;10.00;86.40;;;;;;4987197;28;20045;-51
2022/11/05 05:11:19;;;;;;;10.70;5.20;;;10.00;86.90;;;;;;4988642;28;20030;-53
2022/11/05 05:13:45;;;;;;;9.35;5.38;;;10.00;86.40;;;;;;4986854;28;20498;-59
2022/11/05 05:16:19;;;;;;;9.93;4.72;;;10.00;86.80;;;;;;4989634;28;20039;-51
2022/11/05 05:18:44;;;;;;;10.85;5.60;;;10.00;86.60;;;;;;4980838;28;20142;-51
2022/11/05 05:23:54;;;;;;;16.02;9.15;;;10.00;87.20;;;;;;4984089;28;20078;-52
2022/11/05 05:26:19;;;;;;;14.43;6.63;;;10.00;87.40;;;;;;4986067;28;20023;-56
2022/11/05 05:28:45;;;;;;;11.43;5.07;;;10.10;86.70;;;;;;4987239;28;20487;-52
2022/11/05 05:31:11;;;;;;;8.00;5.27;;;10.00;86.50;;;;;;4988276;28;20026;-53
2022/11/05 05:33:37;;;;;;;10.52;6.38;;;10.00;86.40;;;;;;4988495;28;20080;-52
2022/11/05 05:36:02;;;;;;;18.50;8.77;;;10.00;86.60;;;;;;4984588;28;20046;-52
2022/11/05 05:38:28;;;;;;;15.05;9.73;;;10.00;87.00;;;;;;4987491;28;20034;-51
2022/11/05 05:40:58;;;;;;;8.32;5.47;;;10.00;87.50;;;;;;4987956;28;20110;-55
2022/11/05 05:43:24;;;;;;;11.40;5.70;;;10.10;86.60;;;;;;4984468;28;20027;-54
2022/11/05 05:45:50;;;;;;;12.32;5.75;;;10.00;87.20;;;;;;4987360;28;20026;-54
2022/11/05 05:48:15;;;;;;;14.40;7.57;;;9.90;87.10;;;;;;4989805;28;20521;-53
2022/11/05 05:50:41;;;;;;;13.30;5.53;;;9.90;87.00;;;;;;4987314;28;20029;-54
2022/11/05 05:53:07;;;;;;;13.50;8.67;;;9.90;87.00;;;;;;4986622;28;20037;-50
2022/11/05 05:55:33;;;;;;;18.63;7.20;;;10.00;87.70;;;;;;4985855;28;20042;-55
2022/11/05 05:57:58;;;;;;;10.00;5.67;;;10.00;86.90;;;;;;4987275;28;20023;-57
2022/11/05 06:00:24;;;;;;;26.77;13.23;;;10.00;87.30;;;;;;4984583;28;20157;-59
2022/11/05 06:02:49;;;;;;;8.40;5.73;;;10.00;87.40;;;;;;4989897;28;20018;-46
2022/11/05 06:05:15;;;;;;;20.00;5.50;;;10.00;87.30;;;;;;4985126;28;20502;-54
2022/11/05 06:07:41;;;;;;;12.57;5.63;;;9.90;86.90;;;;;;4980362;28;20022;-52
2022/11/05 06:10:07;;;;;;;14.10;7.87;;;9.90;86.90;;;;;;4987160;28;20101;-55
2022/11/05 06:12:32;;;;;;;12.85;5.38;;;10.00;87.30;;;;;;4984731;28;20027;-56
2022/11/05 06:14:58;;;;;;;16.60;8.37;;;10.00;86.90;;;;;;4987105;28;20038;-57
2022/11/05 06:17:23;;;;;;;13.73;8.07;;;10.00;87.50;;;;;;4989473;28;20866;-54
2022/11/05 06:19:49;;;;;;;17.13;8.40;;;10.00;87.20;;;;;;4986549;28;20026;-53
2022/11/05 06:22:15;;;;;;;13.17;8.20;;;9.90;87.20;;;;;;4989170;28;20089;-55
2022/11/05 06:24:41;;;;;;;21.33;10.17;;;9.90;87.10;;;;;;4984852;28;20498;-57
2022/11/05 06:27:06;;;;;;;15.03;7.60;;;9.90;87.30;;;;;;4987109;28;20033;-55
2022/11/05 06:29:32;;;;;;;14.67;8.20;;;9.90;87.40;;;;;;4988874;28;20417;-55
2022/11/05 06:31:57;;;;;;;10.57;7.20;;;9.90;87.90;;;;;;4985462;28;20490;-51
2022/11/05 06:34:23;;;;;;;13.23;8.23;;;9.90;87.20;;;;;;4986283;28;20045;-55
2022/11/05 06:36:48;;;;;;;16.90;8.53;;;10.00;87.70;;;;;;4983206;28;20045;-54
2022/11/05 06:39:14;;;;;;;14.17;6.97;;;10.00;87.30;;;;;;4986999;28;20030;-53
2022/11/05 06:41:40;;;;;;;10.77;6.03;;;10.00;86.80;;;;;;4986136;28;20514;-52
2022/11/05 06:44:05;;;;;;;15.27;8.07;;;9.90;87.30;;;;;;4981009;28;20757;-53
2022/11/05 06:46:31;;;;;;;17.33;8.30;;;9.90;87.20;;;;;;4984199;28;20084;-55
2022/11/05 06:48:56;;;;;;;18.57;6.83;;;10.00;87.80;;;;;;4986191;28;20042;-54
2022/11/05 06:51:23;;;;;;;13.63;7.30;;;10.00;86.90;;;;;;4985928;28;20041;-53
2022/11/05 06:53:48;;;;;;;;;;;10.00;86.80;;;;;;4986504;28;20572;-53
2022/11/05 06:56:14;;;;;;;12.25;6.57;;;10.00;87.50;;;;;;4987281;28;19930;-51
2022/11/05 06:58:40;;;;;;;39.07;14.10;;;10.00;87.00;;;;;;4982239;28;20036;-56
2022/11/05 07:01:07;;;;;;;32.03;13.27;;;10.10;86.70;;;;;;4985233;28;20160;-56
2022/11/05 07:03:34;;;;;;;24.15;10.70;;;10.00;86.40;;;;;;4985064;28;20379;-58
2022/11/05 07:06:02;;;;;;;16.35;8.98;;;10.00;86.10;;;;;;4986552;28;20040;-51
2022/11/05 07:08:35;;;;;;;12.30;6.82;;;9.90;86.30;;;;;;4982647;28;20077;-53
2022/11/05 07:11:00;;;;;;;17.20;8.35;;;9.90;86.80;;;;;;4983997;28;20038;-56
2022/11/05 07:13:26;;;;;;;22.00;10.77;;;9.90;87.00;;;;;;4987418;28;20026;-56
2022/11/05 07:15:52;;;;;;;16.63;9.80;;;9.90;87.10;;;;;;4984711;28;20057;-50
2022/11/05 07:18:17;;;;;;;26.77;13.40;;;9.90;87.10;;;;;;4987264;28;20049;-53
2022/11/05 07:20:43;;;;;;;50.63;28.77;;;10.00;87.20;;;;;;4984245;28;20034;-51
2022/11/05 07:23:11;;;;;;;26.40;12.17;;;9.90;86.60;;;;;;4985907;28;20026;-55
2022/11/05 07:25:36;;;;;;;24.52;12.18;;;10.00;86.80;;;;;;4987527;28;20112;-53
2022/11/05 07:28:03;;;;;;;12.63;6.17;;;10.00;86.70;;;;;;4983899;28;20173;-53
2022/11/05 07:30:29;;;;;;;18.95;9.20;;;10.10;86.40;;;;;;4986896;28;20278;-54
2022/11/05 07:32:55;;;;;;;26.85;15.93;;;10.10;86.70;;;;;;4984535;28;20040;-52
2022/11/05 07:35:21;;;;;;;15.17;7.03;;;10.10;86.30;;;;;;4982222;28;20042;-52
2022/11/05 07:37:48;;;;;;;10.70;5.10;;;10.10;86.30;;;;;;4984639;28;20026;-52
2022/11/05 07:40:17;;;;;;;14.00;7.57;;;10.20;86.30;;;;;;4985034;28;20030;-52
2022/11/05 07:42:44;;;;;;;20.77;11.70;;;10.20;85.50;;;;;;4977465;28;20014;-52
2022/11/05 07:45:11;;;;;;;13.57;7.07;;;10.10;86.10;;;;;;4983830;28;20046;-51
2022/11/05 07:47:38;;;;;;;23.27;12.57;;;10.10;85.90;;;;;;4981808;28;20026;-54
2022/11/05 07:50:04;;;;;;;12.68;6.82;;;10.10;86.30;;;;;;4983455;28;20045;-50
2022/11/05 07:52:33;;;;;;;11.15;5.82;;;10.10;86.70;;;;;;4982986;28;20097;-52
2022/11/05 07:54:58;;;;;;;17.05;7.60;;;10.10;85.60;;;;;;4984951;28;20038;-52
2022/11/05 07:57:24;;;;;;;12.80;5.70;;;10.10;84.90;;;;;;4985228;28;20035;-51
2022/11/05 07:59:50;;;;;;;17.33;7.73;;;10.10;85.60;;;;;;4985144;28;20022;-56
2022/11/05 08:02:15;;;;;;;12.77;6.33;;;10.10;85.90;;;;;;4985491;28;20029;-50
2022/11/05 08:04:41;;;;;;;15.40;5.67;;;10.20;85.90;;;;;;4984337;28;20030;-49
2022/11/05 08:07:07;;;;;;;7.97;4.93;;;10.10;85.10;;;;;;4984695;28;20026;-54
2022/11/05 08:09:33;;;;;;;9.93;5.32;;;10.10;84.50;;;;;;4990785;28;20038;-57
2022/11/05 08:11:59;;;;;;;20.85;6.13;;;10.20;84.90;;;;;;4987392;28;20102;-59
2022/11/05 08:14:25;;;;;;;13.68;6.72;;;10.10;84.50;;;;;;4986755;28;20185;-61
2022/11/05 08:16:50;;;;;;;13.33;6.13;;;10.10;85.50;;;;;;4988430;28;20049;-60
2022/11/05 08:19:16;;;;;;;104.47;14.10;;;10.10;85.10;;;;;;4988926;28;20026;-51
2022/11/05 08:21:42;;;;;;;12.53;6.87;;;10.10;85.70;;;;;;4988919;28;20065;-50
2022/11/05 08:24:08;;;;;;;13.90;6.75;;;10.20;85.50;;;;;;4988124;28;20037;-59
2022/11/05 08:26:33;;;;;;;14.05;7.05;;;10.20;85.20;;;;;;4990922;28;20053;-50
2022/11/05 08:28:59;;;;;;;12.80;5.60;;;10.20;85.00;;;;;;4989714;28;20037;-50
2022/11/05 08:31:26;;;;;;;13.95;8.00;;;10.10;85.10;;;;;;4988186;28;20515;-49
2022/11/05 08:33:52;;;;;;;11.27;7.50;;;10.20;86.40;;;;;;4986850;28;20038;-49
2022/11/05 08:36:18;;;;;;;15.07;8.18;;;10.30;85.60;;;;;;4990466;28;20042;-50
2022/11/05 08:38:44;;;;;;;9.77;5.72;;;10.30;85.40;;;;;;4988821;28;20026;-50
2022/11/05 08:41:09;;;;;;;10.83;6.23;;;10.10;84.40;;;;;;4984613;28;20124;-49
2022/11/05 08:43:35;;;;;;;13.20;6.00;;;10.00;84.90;;;;;;4987983;28;20026;-50
2022/11/05 08:46:01;;;;;;;13.97;6.73;;;10.00;84.90;;;;;;4990003;28;20037;-48
2022/11/05 08:48:27;;;;;;;17.33;6.25;;;10.10;85.90;;;;;;4988356;28;20911;-52
2022/11/05 08:50:52;;;;;;;10.87;5.47;;;10.10;84.30;;;;;;4988243;28;20042;-47
2022/11/05 08:53:18;;;;;;;12.03;6.53;;;10.20;84.90;;;;;;4989500;28;20062;-52
2022/11/05 08:55:46;;;;;;;9.77;5.90;;;10.20;84.30;;;;;;4987502;28;20486;-50
2022/11/05 08:58:15;;;;;;;12.75;5.75;;;10.30;84.90;;;;;;4984599;28;20034;-50
2022/11/05 09:00:47;;;;;;;14.77;5.70;;;10.30;84.20;;;;;;4987123;28;20391;-50
2022/11/05 09:03:13;;;;;;;12.38;5.68;;;10.40;84.50;;;;;;4990614;28;20576;-58
2022/11/05 09:05:40;;;;;;;18.67;6.50;;;10.40;84.50;;;;;;4987249;28;20030;-46
2022/11/05 09:08:06;;;;;;;;;;;10.50;83.60;;;;;;4984152;28;20038;-51
2022/11/05 09:10:34;;;;;;;10.82;4.93;;;10.50;83.90;;;;;;4988759;28;19914;-48
2022/11/05 09:13:00;;;;;;;14.07;5.80;;;10.60;84.40;;;;;;4987468;28;20491;-45
2022/11/05 09:15:27;;;;;;;14.30;4.88;;;10.60;83.40;;;;;;4984099;28;20033;-46
2022/11/05 09:17:52;;;;;;;11.35;5.57;;;10.50;82.60;;;;;;4987560;28;20104;-45
2022/11/05 09:20:18;;;;;;;12.80;6.07;;;10.60;83.50;;;;;;4987176;28;20508;-52
2022/11/05 09:22:45;;;;;;;15.13;5.33;;;10.50;82.90;;;;;;4987828;28;20019;-45
2022/11/05 09:25:10;;;;;;;;;;;10.60;82.90;;;;;;4986132;28;20034;-48
2022/11/05 09:27:36;;;;;;;15.50;4.65;;;10.70;83.80;;;;;;4983502;28;19914;-46
2022/11/05 09:30:01;;;;;;;7.97;4.90;;;10.60;82.70;;;;;;4984220;28;20109;-48
2022/11/05 09:32:29;;;;;;;8.43;4.40;;;10.60;81.30;;;;;;4981750;28;20049;-49
2022/11/05 09:34:54;;;;;;;11.65;5.00;;;10.60;81.90;;;;;;4987782;28;20297;-49
2022/11/05 09:37:20;;;;;;;9.30;4.83;;;10.50;81.80;;;;;;4982934;28;20045;-50
2022/11/05 09:39:46;;;;;;;9.60;4.50;;;10.50;83.00;;;;;;4989448;28;20034;-47
2022/11/05 09:42:15;;;;;;;10.60;4.53;;;10.60;82.40;;;;;;4988304;28;20053;-47
2022/11/05 09:44:47;;;;;;;12.23;4.75;;;10.60;81.20;;;;;;4983934;28;20077;-45
2022/11/05 09:47:39;;;;;;;8.35;4.47;;;10.60;81.30;;;;;;4986646;28;20112;-46
2022/11/05 09:50:16;;;;;;;10.73;3.88;;;10.60;81.30;;;;;;4980733;28;20052;-46
2022/11/05 09:52:42;;;;;;;8.87;3.90;;;10.70;82.10;;;;;;4985642;28;20030;-46
2022/11/05 09:55:25;;;;;;;10.00;4.32;;;10.70;80.50;;;;;;4987137;28;20030;-47
2022/11/05 09:57:55;;;;;;;7.55;4.55;;;10.70;80.60;;;;;;4988832;28;20045;-48
2022/11/05 10:00:21;;;;;;;12.25;4.22;;;10.80;82.50;;;;;;4988398;28;20030;-49
2022/11/05 10:02:57;;;;;;;7.40;3.53;;;10.90;80.40;;;;;;4985454;28;20083;-53
2022/11/05 10:05:24;;;;;;;7.13;3.25;;;10.90;81.40;;;;;;4986356;28;20061;-48
2022/11/05 10:08:04;;;;;;;9.75;4.22;;;10.90;80.60;;;;;;4987230;28;20072;-48
2022/11/05 10:10:46;;;;;;;8.95;4.50;;;10.90;79.90;;;;;;4989273;28;20526;-51
2022/11/05 10:13:23;;;;;;;12.65;4.25;;;10.90;80.60;;;;;;4979903;28;20041;-49
2022/11/05 10:16:00;;;;;;;11.93;4.30;;;11.00;81.10;;;;;;4981560;28;20038;-49
2022/11/05 10:18:33;;;;;;;;;;;10.90;81.10;;;;;;4988933;28;20031;-50
2022/11/05 10:20:59;;;;;;;6.15;3.40;;;10.90;80.20;;;;;;4986711;28;19914;-45
2022/11/05 10:23:26;;;;;;;12.45;4.82;;;10.90;80.80;;;;;;4986034;28;20030;-52
2022/11/05 10:25:59;;;;;;;11.65;3.83;;;11.00;81.20;;;;;;4988699;28;20494;-54
2022/11/05 10:28:28;;;;;;;14.77;4.28;;;11.00;79.60;;;;;;4983192;28;20036;-49
2022/11/05 10:30:59;;;;;;;11.45;4.30;;;11.10;79.40;;;;;;4987251;28;20030;-48
2022/11/05 10:33:50;;;;;;;8.85;3.53;;;11.10;79.80;;;;;;4985958;28;20036;-47
2022/11/05 10:36:27;;;;;;;9.43;3.63;;;11.10;80.10;;;;;;4985761;28;20189;-52
2022/11/05 10:38:57;;;;;;;10.60;4.43;;;11.10;79.00;;;;;;4984084;28;20125;-50
2022/11/05 10:42:07;;;;;;;8.07;3.85;;;11.10;79.80;;;;;;4985726;28;20121;-50
2022/11/05 10:44:48;;;;;;;7.10;3.75;;;11.10;78.30;;;;;;4985861;28;20146;-48
2022/11/05 10:47:36;;;;;;;11.50;3.38;;;11.10;78.70;;;;;;4986406;28;20088;-50
2022/11/05 10:50:22;;;;;;;12.65;3.05;;;11.10;77.20;;;;;;4987852;28;20038;-47
2022/11/05 10:53:15;;;;;;;7.80;2.50;;;11.20;76.40;;;;;;4981673;28;20529;-50
2022/11/05 10:55:47;;;;;;;11.18;3.28;;;11.30;75.40;;;;;;4985010;28;20507;-49
2022/11/05 10:58:15;;;;;;;4.25;2.35;;;11.40;75.10;;;;;;4983799;28;20041;-49
2022/11/05 11:01:05;;;;;;;12.15;3.17;;;11.40;74.80;;;;;;4993902;28;20050;-47
2022/11/05 11:03:40;;;;;;;6.68;2.15;;;11.60;74.10;;;;;;4983435;28;20035;-48
2022/11/05 11:06:31;;;;;;;7.18;2.35;;;11.60;72.90;;;;;;4983013;28;20033;-52
2022/11/05 11:09:00;;;;;;;11.43;2.33;;;11.70;73.00;;;;;;4985067;28;20058;-50
2022/11/05 11:11:28;;;;;;;10.68;2.47;;;11.80;72.80;;;;;;4985043;28;20530;-50
2022/11/05 11:14:00;;;;;;;10.55;2.88;;;12.00;72.60;;;;;;4984222;28;20865;-50
2022/11/05 11:16:31;;;;;;;9.00;2.70;;;12.00;73.10;;;;;;4982384;28;20043;-50
2022/11/05 11:18:59;;;;;;;8.90;3.05;;;11.90;72.60;;;;;;4983827;28;20034;-53
2022/11/05 11:21:27;;;;;;;6.35;3.60;;;12.00;73.70;;;;;;4987308;28;20133;-50
2022/11/05 11:24:01;;;;;;;6.95;3.40;;;12.10;73.20;;;;;;4983710;28;20015;-53
2022/11/05 11:26:35;;;;;;;11.50;3.35;;;12.20;74.30;;;;;;4980527;28;20500;-53
2022/11/05 11:29:12;;;;;;;9.88;3.10;;;12.20;73.70;;;;;;4984627;28;20030;-55
2022/11/05 11:31:39;;;;;;;8.60;3.33;;;12.30;73.10;;;;;;4985955;28;20038;-57
2022/11/05 11:34:12;;;;;;;5.75;3.13;;;12.20;71.20;;;;;;4983002;28;20304;-54
2022/11/05 11:36:43;;;;;;;6.40;3.00;;;12.20;70.10;;;;;;4986863;28;20042;-55
2022/11/05 11:39:16;;;;;;;7.45;3.20;;;12.40;71.10;;;;;;4984794;28;20169;-56
2022/11/05 11:41:43;;;;;;;4.88;2.15;;;12.40;71.30;;;;;;4983042;28;20096;-57
2022/11/05 11:44:17;;;;;;;8.27;3.05;;;12.30;70.80;;;;;;4984685;28;20034;-59
2022/11/05 11:46:48;;;;;;;5.07;2.17;;;12.30;71.30;;;;;;4981579;28;20022;-54
2022/11/05 11:49:32;;;;;;;7.28;3.05;;;12.20;70.10;;;;;;4981864;28;20045;-50
2022/11/05 11:52:08;;;;;;;5.60;2.78;;;12.10;71.50;;;;;;4985874;28;20105;-53
2022/11/05 11:54:35;;;;;;;7.55;2.30;;;12.00;70.70;;;;;;4984307;28;20134;-50
2022/11/05 11:57:01;;;;;;;16.70;3.45;;;12.00;69.70;;;;;;4981794;28;20046;-60
2022/11/05 11:59:29;;;;;;;7.68;2.22;;;12.20;70.90;;;;;;4985298;28;20063;-52
2022/11/05 12:02:22;;;;;;;9.20;4.22;;;12.30;71.50;;;;;;4981908;28;20466;-47
2022/11/05 12:04:59;;;;;;;6.88;2.58;;;12.20;69.80;;;;;;4977968;28;20105;-55
2022/11/05 12:07:24;;;;;;;;;;;12.10;70.00;;;;;;4984556;28;20628;-48
2022/11/05 12:10:14;;;;;;;8.80;2.58;;;12.00;69.40;;;;;;4982116;28;19917;-54
2022/11/05 12:13:16;;;;;;;10.95;3.65;;;12.00;69.70;;;;;;4985207;28;20034;-53
2022/11/05 12:15:59;;;;;;;13.85;3.25;;;12.20;73.20;;;;;;4974370;28;20700;-57
2022/11/05 12:18:32;;;;;;;6.25;2.10;;;12.50;71.20;;;;;;4983990;28;20014;-55
2022/11/05 12:21:05;;;;;;;9.18;2.83;;;12.50;69.20;;;;;;4984865;28;20034;-49
2022/11/05 12:24:02;;;;;;;10.05;2.22;;;12.50;70.30;;;;;;4982924;28;20522;-50
2022/11/05 12:26:39;;;;;;;7.85;2.55;;;12.60;69.00;;;;;;4983984;28;20041;-50
2022/11/05 12:29:26;;;;;;;4.20;2.20;;;12.60;67.10;;;;;;4986464;28;20022;-53
2022/11/05 12:32:20;;;;;;;10.98;2.22;;;12.60;66.70;;;;;;4985114;28;20023;-51
2022/11/05 12:34:58;;;;;;;5.72;3.00;;;12.50;68.30;;;;;;4983413;28;20122;-52
2022/11/05 12:37:32;;;;;;;9.60;2.90;;;12.50;68.10;;;;;;4981652;28;20042;-56
2022/11/05 12:40:07;;;;;;;7.50;2.70;;;12.50;67.90;;;;;;4986635;28;20038;-49
2022/11/05 12:42:38;;;;;;;9.05;2.20;;;12.40;68.00;;;;;;4983213;28;20049;-50
2022/11/05 12:45:04;;;;;;;9.65;1.80;;;12.30;67.80;;;;;;4974975;28;20046;-48
2022/11/05 12:47:47;;;;;;;4.47;1.70;;;12.30;68.80;;;;;;4983310;28;20110;-50
2022/11/05 12:50:45;;;;;;;9.95;2.38;;;12.20;67.60;;;;;;4981615;28;20042;-50
2022/11/05 12:53:39;;;;;;;9.00;3.15;;;12.20;68.50;;;;;;4981567;28;20026;-62
2022/11/05 12:56:19;;;;;;;4.68;2.00;;;12.10;68.20;;;;;;4984831;28;20125;-46
2022/11/05 12:58:56;;;;;;;4.90;2.10;;;12.00;68.80;;;;;;4987738;28;20022;-46
2022/11/05 13:01:33;;;;;;;9.85;1.80;;;12.10;68.00;;;;;;4988733;28;20027;-46
2022/11/05 13:04:07;;;;;;;5.60;2.13;;;12.20;69.50;;;;;;4987946;28;20041;-47
2022/11/05 13:06:40;;;;;;;7.25;2.03;;;12.10;68.60;;;;;;4988804;28;20038;-49
2022/11/05 13:09:23;;;;;;;9.45;2.13;;;12.10;67.90;;;;;;4986220;28;20023;-45
2022/11/05 13:11:56;;;;;;;8.52;2.22;;;12.10;66.60;;;;;;4989499;28;20094;-49
2022/11/05 13:14:24;;;;;;;5.95;2.10;;;12.10;67.30;;;;;;4983848;28;20547;-46
2022/11/05 13:16:55;;;;;;;12.07;2.00;;;12.10;67.80;;;;;;4983540;28;20039;-47
2022/11/05 13:19:35;;;;;;;6.00;1.73;;;12.20;66.80;;;;;;4984400;28;20448;-50
2022/11/05 13:22:19;;;;;;;4.70;1.95;;;12.40;66.60;;;;;;4986907;28;20142;-46
2022/11/05 13:24:49;;;;;;;5.65;1.70;;;12.50;66.20;;;;;;4984686;28;20379;-55
2022/11/05 13:27:18;;;;;;;6.47;1.73;;;12.70;66.30;;;;;;4988525;28;20111;-49
2022/11/05 13:29:47;;;;;;;4.28;1.75;;;12.80;66.50;;;;;;4988198;28;20157;-49
2022/11/05 13:32:33;;;;;;;14.63;6.25;;;12.80;65.60;;;;;;4988035;28;20042;-47
2022/11/05 13:35:01;;;;;;;17.38;7.65;;;12.80;66.50;;;;;;4987474;28;20120;-48
2022/11/05 13:40:21;;;;;;;7.47;2.72;;;12.90;66.70;;;;;;4981689;28;20108;-46
2022/11/05 13:43:23;;;;;;;11.98;2.70;;;13.00;66.40;;;;;;4982462;28;20040;-45
2022/11/05 13:46:08;;;;;;;12.73;4.03;;;13.00;66.10;;;;;;4987109;28;20027;-48
2022/11/05 13:49:15;;;;;;;22.80;12.75;;;13.50;65.00;;;;;;4988928;28;20038;-48
2022/11/05 13:51:54;;;;;;;10.98;5.82;;;13.90;64.80;;;;;;4981896;28;20403;-49
2022/11/05 13:54:52;;;;;;;20.55;9.23;;;14.40;61.50;;;;;;4988201;28;20030;-47